Latest Coastal Weather Observations for Coles Point

IDS60701

Issued at 6:02 pm CDT Tuesday 3 March 2015 (issued every 10 minutes, with the page automatically refreshed every 10 minutes)

About coastal observations | Map of coastal stations | Coastal observations for SA | Marine services | Other Formats
Station Details ID: 018191 Name: COLES POINT Lat: -34.37 Lon: 135.37 Height: 28.0 m
Data from the previous 72 hours. | See also: Recent months at Coles Point
Date/Time
CDT
Temp

°C
Wind Pressure Rain
since 9am
mm
Weather Cloud Vis
km
Sea
Height
m
Swell
Dir
 
Speed
knots
Gust
knots
hPa Trend Height
m
Period
s
Dir
03/06:00pm 20.7 S 14 19 1018.0 - 0.0 - - - - - - -
03/05:30pm 20.5 S 17 21 1017.9 - 0.0 - - - - - - -
03/05:00pm 20.9 S 18 22 1017.6 - 0.0 - - - - - - -
03/04:30pm 21.7 SSW 19 24 1017.4 - 0.0 - - - - - - -
03/04:00pm 22.0 SSW 20 24 1017.5 - 0.0 - - - - - - -
03/03:30pm 22.4 SSW 20 23 1017.7 - 0.0 - - - - - - -
03/03:00pm 22.4 S 18 23 1018.0 - 0.0 - - - - - - -
03/02:30pm 23.0 SSW 17 21 1018.0 - 0.0 - - - - - - -
03/02:00pm 21.6 SSW 17 21 1018.0 - 0.0 - - - - - - -
03/01:30pm 21.8 SSW 16 21 1018.4 - 0.0 - - - - - - -
03/01:00pm 22.1 SSW 14 19 1018.7 - 0.0 - - - - - - -
03/12:30pm 22.8 S 10 18 1019.2 - 0.0 - - - - - - -
03/12:00pm 21.1 SSE 10 15 1019.6 - 0.0 - - - - - - -
03/11:30am 21.1 SSE 9 13 1019.9 - 0.0 - - - - - - -
03/11:00am 21.0 SE 10 15 1019.6 - 0.0 - - - - - - -
03/10:30am 19.8 SSE 11 16 1019.8 - 0.0 - - - - - - -
03/10:00am 18.7 SSE 12 15 1019.9 - 0.0 - - - - - - -
03/09:30am 18.1 SSE 11 13 1019.8 - 0.0 - - - - - - -
03/09:00am 17.5 SSE 10 13 1019.8 - 0.0 - - - - - - -
03/08:30am 16.3 SE 8 10 1019.5 - 0.0 - - - - - - -
03/08:00am 15.8 SSE 6 8 1018.9 - 0.0 - - - - - - -
03/07:30am 15.2 SSE 8 10 1018.4 - 0.0 - - - - - - -
03/07:00am 15.3 SSE 6 8 1018.4 - 0.0 - - - - - - -
03/06:30am 15.3 SSE 7 10 1017.5 - 0.0 - - - - - - -
03/06:00am 15.3 SSE 6 8 1017.2 - 0.0 - - - - - - -
03/05:30am 15.6 SSE 7 11 1016.9 - 0.0 - - - - - - -
03/05:00am 15.6 SSE 6 8 1016.7 - 0.0 - - - - - - -
03/04:30am 16.0 SSE 4 7 1017.1 - 0.0 - - - - - - -
03/04:00am 16.2 SSE 6 9 1016.7 - 0.0 - - - - - - -
03/03:30am 16.2 SSE 6 9 1016.6 - 0.0 - - - - - - -
03/03:00am 16.4 SSE 6 10 1016.8 - 0.0 - - - - - - -
03/02:30am 16.5 SE 6 8 1017.0 - 0.0 - - - - - - -
03/02:00am 16.4 SSE 5 7 1017.1 - 0.0 - - - - - - -
03/01:30am 16.5 SSE 5 7 1017.4 - 0.0 - - - - - - -
03/01:00am 16.7 SSE 7 9 1017.7 - 0.0 - - - - - - -
03/12:30am 16.8 SSE 5 7 1017.6 - 0.0 - - - - - - -
03/12:00am 17.0 SSE 8 11 1017.6 - 0.0 - - - - - - -
 
Date/Time
CDT
Temp

°C
Wind Pressure Rain
since 9am
mm
Weather Cloud Vis
km
Sea
Height
m
Swell
Dir
 
Speed
knots
Gust
knots
hPa Trend Height
m
Period
s
Dir
02/11:30pm 17.1 SSE 7 10 1017.5 - 0.0 - - - - - - -
02/11:00pm 17.0 SSE 7 9 1017.6 - 0.0 - - - - - - -
02/10:30pm 17.1 SE 6 8 1017.7 - 0.0 - - - - - - -
02/10:00pm 16.9 S 5 7 1017.9 - 0.0 - - - - - - -
02/09:30pm 17.1 SE 6 8 1017.6 - 0.0 - - - - - - -
02/09:00pm 17.3 SSE 10 13 1017.0 - 0.0 - - - - - - -
02/08:30pm 17.6 SSE 10 14 1016.3 - 0.0 - - - - - - -
02/08:00pm 17.9 SSE 11 14 1015.9 - 0.0 - - - - - - -
02/07:30pm 18.1 SSE 12 14 1016.0 - 0.0 - - - - - - -
02/07:00pm 18.5 SSE 12 15 1016.0 - 0.0 - - - - - - -
02/06:30pm 18.5 SSE 13 17 1015.6 - 0.0 - - - - - - -
02/06:00pm 18.5 S 14 17 1015.2 - 0.0 - - - - - - -
02/05:30pm 18.5 S 12 16 1015.0 - 0.0 - - - - - - -
02/05:00pm 18.7 S 14 19 1015.0 - 0.0 - - - - - - -
02/04:30pm 19.5 SSW 13 16 1014.9 - 0.0 - - - - - - -
02/04:00pm 20.1 SSW 13 17 1015.2 - 0.0 - - - - - - -
02/03:30pm 20.4 SSW 13 16 1014.9 - 0.0 - - - - - - -
02/03:00pm 20.3 SSW 11 14 1014.8 - 0.0 - - - - - - -
02/02:30pm 21.2 SSW 10 12 1014.4 - 0.0 - - - - - - -
02/02:00pm 20.5 SSW 12 15 1014.4 - 0.0 - - - - - - -
02/01:30pm 21.2 SW 5 7 1014.7 - 0.0 - - - - - - -
02/01:00pm 21.9 SSW 7 9 1014.9 - 0.0 - - - - - - -
02/12:30pm 20.1 WSW 8 9 1015.5 - 0.0 - - - - - - -
02/12:00pm 22.0 W 4 7 1015.4 - 0.0 - - - - - - -
02/11:30am 22.3 SE 3 5 1015.1 - 0.0 - - - - - - -
02/11:00am 20.6 ENE 4 6 1015.1 - 0.0 - - - - - - -
02/10:30am 19.8 E 5 7 1014.9 - 0.0 - - - - - - -
02/10:00am 19.3 E 6 9 1014.5 - 0.0 - - - - - - -
02/09:30am 18.0 ESE 6 8 1014.7 - 0.0 - - - - - - -
02/09:00am 17.3 SE 8 10 1014.7 - 0.0 - - - - - - -
02/08:30am 16.4 SE 6 8 1014.8 - 0.0 - - - - - - -
02/08:00am 15.8 SE 6 8 1015.3 - 0.0 - - - - - - -
02/07:30am 15.5 SSE 5 6 1015.3 - 0.0 - - - - - - -
02/07:00am 15.4 SSE 6 7 1015.1 - 0.0 - - - - - - -
02/06:30am 14.7 ESE 2 3 1015.2 - 0.0 - - - - - - -
02/06:00am 14.9 CALM 0 0 1014.9 - 0.0 - - - - - - -
02/05:30am 15.4 E 1 1 1014.9 - 0.0 - - - - - - -
02/05:00am 15.2 E 2 3 1015.0 - 0.0 - - - - - - -
02/04:30am 16.1 ENE 7 8 1014.6 - 0.0 - - - - - - -
02/04:00am 16.0 ENE 7 9 1014.5 - 0.0 - - - - - - -
02/03:30am 16.2 E 7 9 1014.4 - 0.0 - - - - - - -
02/03:00am 16.3 E 9 12 1014.3 - 0.0 - - - - - - -
02/02:30am 16.6 E 9 13 1015.1 - 0.0 - - - - - - -
02/02:00am 16.8 E 7 11 1015.4 - 0.0 - - - - - - -
02/01:30am 16.8 ESE 5 10 1015.8 - 0.0 - - - - - - -
02/01:00am 16.2 ESE 6 8 1015.7 - 0.0 - - - - - - -
02/12:30am 16.6 ESE 5 9 1016.2 - 0.0 - - - - - - -
02/12:00am 15.8 SSE 4 5 1016.4 - 0.0 - - - - - - -
 
Date/Time
CDT
Temp

°C
Wind Pressure Rain
since 9am
mm
Weather Cloud Vis
km
Sea
Height
m
Swell
Dir
 
Speed
knots
Gust
knots
hPa Trend Height
m
Period
s
Dir
01/11:30pm 15.5 SSE 4 5 1017.0 - 0.0 - - - - - - -
01/11:00pm 15.8 SSE 4 5 1017.5 - 0.0 - - - - - - -
01/10:30pm 15.7 SSE 5 7 1017.5 - 0.0 - - - - - - -
01/10:00pm 15.8 SE 7 9 1017.3 - 0.0 - - - - - - -
01/09:30pm 16.2 SE 9 12 1017.2 - 0.0 - - - - - - -
01/09:00pm 16.6 SE 10 15 1016.9 - 0.0 - - - - - - -
01/08:30pm 17.3 SE 12 17 1016.6 - 0.0 - - - - - - -
01/08:00pm 18.2 SE 13 17 1016.5 - 0.0 - - - - - - -
01/07:30pm 19.6 SE 13 16 1016.7 - 0.0 - - - - - - -
01/07:00pm 20.6 SE 15 19 1016.0 - 0.0 - - - - - - -
01/06:30pm 22.4 SE 11 17 1016.0 - 0.0 - - - - - - -
01/06:00pm 20.6 S 16 25 1016.2 - 0.0 - - - - - - -
01/05:32pm 21.3 S 15 27 1016.0 - 0.0 - - - - - - -
01/05:30pm 21.9 S 15 22 1016.2 - 0.0 - - - - - - -
01/05:00pm 21.1 S 19 24 1015.9 - 0.0 - - - - - - -
01/04:30pm 20.9 S 19 24 1016.1 - 0.0 - - - - - - -
01/04:00pm 21.0 S 18 24 1016.3 - 0.0 - - - - - - -
01/03:30pm 20.8 S 16 22 1016.7 - 0.0 - - - - - - -
01/03:00pm 22.0 SSW 18 23 1016.8 - 0.0 - - - - - - -
01/02:30pm 20.8 SSW 20 24 1017.4 - 0.0 - - - - - - -
01/02:00pm 21.8 SSW 17 22 1017.2 - 0.0 - - - - - - -
01/01:30pm 21.1 SW 16 22 1017.6 - 0.0 - - - - - - -
01/01:00pm 20.5 SSW 17 21 1017.8 - 0.0 - - - - - - -
01/12:30pm 21.4 SW 14 20 1018.1 - 0.0 - - - - - - -
01/12:00pm 21.5 SE 9 13 1018.7 - 0.0 - - - - - - -
01/11:30am 20.4 S 11 15 1018.9 - 0.0 - - - - - - -
01/11:00am 19.9 SE 8 12 1019.1 - 0.0 - - - - - - -
01/10:30am 19.2 SE 9 15 1019.1 - 0.0 - - - - - - -
01/10:00am 18.9 SSE 13 17 1018.6 - 0.0 - - - - - - -
01/09:30am 18.0 SSE 12 16 1018.1 - 0.0 - - - - - - -
01/09:00am 17.7 SSE 11 15 1017.8 - 0.0 - - - - - - -
01/08:30am 17.0 SSE 9 11 1017.4 - 0.0 - - - - - - -
01/08:00am 16.6 SSE 6 9 1016.9 - 0.0 - - - - - - -
01/07:30am 16.4 SSE 6 8 1016.5 - 0.0 - - - - - - -
01/07:00am 15.1 SE 5 6 1016.0 - 0.0 - - - - - - -
01/06:30am 16.1 SSE 7 12 1015.8 - 0.0 - - - - - - -
01/06:00am 16.6 SSE 5 8 1015.5 - 0.0 - - - - - - -
01/05:30am 15.3 SSE 7 9 1015.2 - 0.0 - - - - - - -
01/05:00am 16.1 S 7 10 1014.9 - 0.0 - - - - - - -
01/04:30am 16.4 S 12 18 1014.8 - 0.0 - - - - - - -
01/04:00am 16.9 S 13 19 1014.7 - 0.0 - - - - - - -
01/03:30am 17.1 S 11 17 1014.7 - 0.0 - - - - - - -
01/03:00am 17.2 S 14 19 1014.6 - 0.0 - - - - - - -
01/02:30am 16.9 S 10 15 1014.7 - 0.0 - - - - - - -
01/02:00am 16.9 S 11 15 1014.8 - 0.0 - - - - - - -
01/01:30am 16.9 S 7 9 1014.8 - 0.0 - - - - - - -
01/01:00am 16.8 S 10 14 1014.7 - 0.0 - - - - - - -
01/12:30am 17.0 S 12 15 1014.7 - 0.0 - - - - - - -
01/12:00am 17.3 S 11 15 1014.5 - 0.0 - - - - - - -
 
Date/Time
CDT
Temp

°C
Wind Pressure Rain
since 9am
mm
Weather Cloud Vis
km
Sea
Height
m
Swell
Dir
 
Speed
knots
Gust
knots
hPa Trend Height
m
Period
s
Dir
28/11:30pm 17.3 S 13 17 1014.6 - 0.0 - - - - - - -
28/11:00pm 17.4 S 14 18 1014.7 - 0.0 - - - - - - -
28/10:30pm 18.1 S 9 15 1014.6 - 0.0 - - - - - - -
28/10:00pm 17.6 S 10 14 1014.3 - 0.0 - - - - - - -
28/09:30pm 18.3 S 11 13 1013.9 - 0.0 - - - - - - -
28/09:00pm 18.0 S 13 18 1013.4 - 0.0 - - - - - - -
28/08:30pm 18.5 S 13 18 1012.8 - 0.0 - - - - - - -
28/08:00pm 18.8 S 13 17 1012.3 - 0.0 - - - - - - -
28/07:30pm 19.4 S 14 18 1012.0 - 0.0 - - - - - - -
28/07:00pm 19.9 SSW 15 21 1011.5 - 0.0 - - - - - - -
28/06:30pm 20.6 S 17 22 1011.0 - 0.0 - - - - - - -

Other Formats:

Comma delimited format used in spreadsheet applications
http://www.bom.gov.au/fwo/IDS60701/IDS60701.94658.axf

JavaScript Object Notation format (JSON) in row-major order
http://www.bom.gov.au/fwo/IDS60701/IDS60701.94658.json